地図

経路データ

SID SEASON NUMBER BASIN SUBBASIN NAME ISO_TIME NATURE LAT LON WMO_WIND WMO_PRES WMO_AGENCY TRACK_TYPE DIST2LAND LANDFALL IFLAG USA_AGENCY USA_ATCF_ID USA_LAT USA_LON USA_RECORD USA_STATUS USA_WIND USA_PRES USA_SSHS USA_R34_NE USA_R34_SE USA_R34_SW USA_R34_NW USA_R50_NE USA_R50_SE USA_R50_SW USA_R50_NW USA_R64_NE USA_R64_SE USA_R64_SW USA_R64_NW USA_POCI USA_ROCI USA_RMW USA_EYE TOKYO_LAT TOKYO_LON TOKYO_GRADE TOKYO_WIND TOKYO_PRES TOKYO_R50_DIR TOKYO_R50_LONG TOKYO_R50_SHORT TOKYO_R30_DIR TOKYO_R30_LONG TOKYO_R30_SHORT TOKYO_LAND CMA_LAT CMA_LON CMA_CAT CMA_WIND CMA_PRES HKO_LAT HKO_LON HKO_CAT HKO_WIND HKO_PRES NEWDELHI_LAT NEWDELHI_LON NEWDELHI_GRADE NEWDELHI_WIND NEWDELHI_PRES NEWDELHI_CI NEWDELHI_DP NEWDELHI_POCI REUNION_LAT REUNION_LON REUNION_TYPE REUNION_WIND REUNION_PRES REUNION_TNUM REUNION_CI REUNION_RMW REUNION_R34_NE REUNION_R34_SE REUNION_R34_SW REUNION_R34_NW REUNION_R50_NE REUNION_R50_SE REUNION_R50_SW REUNION_R50_NW REUNION_R64_NE REUNION_R64_SE REUNION_R64_SW REUNION_R64_NW BOM_LAT BOM_LON BOM_TYPE BOM_WIND BOM_PRES BOM_TNUM BOM_CI BOM_RMW BOM_R34_NE BOM_R34_SE BOM_R34_SW BOM_R34_NW BOM_R50_NE BOM_R50_SE BOM_R50_SW BOM_R50_NW BOM_R64_NE BOM_R64_SE BOM_R64_SW BOM_R64_NW BOM_ROCI BOM_POCI BOM_EYE BOM_POS_METHOD BOM_PRES_METHOD NADI_LAT NADI_LON NADI_CAT NADI_WIND NADI_PRES WELLINGTON_LAT WELLINGTON_LON WELLINGTON_WIND WELLINGTON_PRES DS824_LAT DS824_LON DS824_STAGE DS824_WIND DS824_PRES TD9636_LAT TD9636_LON TD9636_STAGE TD9636_WIND TD9636_PRES TD9635_LAT TD9635_LON TD9635_WIND TD9635_PRES TD9635_ROCI NEUMANN_LAT NEUMANN_LON NEUMANN_CLASS NEUMANN_WIND NEUMANN_PRES MLC_LAT MLC_LON MLC_CLASS MLC_WIND MLC_PRES USA_GUST BOM_GUST BOM_GUST_PER REUNION_GUST REUNION_GUST_PER USA_SEAHGT USA_SEARAD_NE USA_SEARAD_SE USA_SEARAD_SW USA_SEARAD_NW STORM_SPEED STORM_DIR
1923250N12341 1923 58 NA NA NOT_NAMED 1923-09-07 00:00:00 TS 11.7000 -19.4000 30 hurdat_atl main 293 290 O_____________ hurdat_atl AL031923 11.7000 -19.4000 TD 30 -1 7 333
1923250N12341 1923 58 NA NA NOT_NAMED 1923-09-07 03:00:00 TS 11.9900 -19.5499 main 297 297 P_____________ AL031923 11.9900 -19.5499 TD 30 -1 7 334
1923250N12341 1923 58 NA NA NOT_NAMED 1923-09-07 06:00:00 TS 12.3000 -19.7000 30 hurdat_atl main 315 315 O_____________ hurdat_atl AL031923 12.3000 -19.7000 TD 30 -1 7 336
1923250N12341 1923 58 NA NA NOT_NAMED 1923-09-07 09:00:00 TS 12.6425 -19.8500 main 336 328 P_____________ AL031923 12.6425 -19.8500 TD 32 -1 8 337
1923250N12341 1923 58 NA NA NOT_NAMED 1923-09-07 12:00:00 TS 13.0000 -20.0000 35 hurdat_atl main 330 321 O_____________ hurdat_atl AL031923 13.0000 -20.0000 TS 35 0 8 338
1923250N12341 1923 58 NA NA NOT_NAMED 1923-09-07 15:00:00 TS 13.3425 -20.1426 main 321 316 P_____________ AL031923 13.3425 -20.1426 TS 35 0 8 337
1923250N12341 1923 58 NA NA NOT_NAMED 1923-09-07 18:00:00 TS 13.7000 -20.3000 35 hurdat_atl main 322 318 O_____________ hurdat_atl AL031923 13.7000 -20.3000 TS 35 0 8 336
1923250N12341 1923 58 NA NA NOT_NAMED 1923-09-07 21:00:00 TS 14.1000 -20.4925 main 330 327 P_____________ AL031923 14.1000 -20.4925 TS 37 0 9 334
1923250N12341 1923 58 NA NA NOT_NAMED 1923-09-08 00:00:00 TS 14.5000 -20.7000 40 hurdat_atl main 345 344 O_____________ hurdat_atl AL031923 14.5000 -20.7000 TS 40 0 9 332
1923250N12341 1923 58 NA NA NOT_NAMED 1923-09-08 03:00:00 TS 14.8500 -20.9001 main 365 365 P_____________ AL031923 14.8500 -20.9001 TS 40 0 8 331
1923250N12341 1923 58 NA NA NOT_NAMED 1923-09-08 06:00:00 TS 15.2000 -21.1000 40 hurdat_atl main 390 390 O_____________ hurdat_atl AL031923 15.2000 -21.1000 TS 40 0 8 333
1923250N12341 1923 58 NA NA NOT_NAMED 1923-09-08 09:00:00 TS 15.6000 -21.2926 main 420 420 P_____________ AL031923 15.6000 -21.2926 TS 42 0 9 334
1923250N12341 1923 58 NA NA NOT_NAMED 1923-09-08 12:00:00 TS 16.0000 -21.5000 45 hurdat_atl main 453 453 O_____________ hurdat_atl AL031923 16.0000 -21.5000 TS 45 0 9 330
1923250N12341 1923 58 NA NA NOT_NAMED 1923-09-08 15:00:00 TS 16.3500 -21.7352 main 484 484 P_____________ AL031923 16.3500 -21.7352 TS 45 0 9 326
1923250N12341 1923 58 NA NA NOT_NAMED 1923-09-08 18:00:00 TS 16.7000 -22.0000 45 hurdat_atl main 531 531 O_____________ hurdat_atl AL031923 16.7000 -22.0000 TS 45 0 9 325
1923250N12341 1923 58 NA NA NOT_NAMED 1923-09-08 21:00:00 TS 17.0925 -22.2851 main 579 579 P_____________ AL031923 17.0925 -22.2851 TS 45 0 10 324
1923250N12341 1923 58 NA NA NOT_NAMED 1923-09-09 00:00:00 TS 17.5000 -22.6000 45 hurdat_atl main 628 628 O_____________ hurdat_atl AL031923 17.5000 -22.6000 TS 45 0 10 322
1923250N12341 1923 58 NA NA NOT_NAMED 1923-09-09 03:00:00 TS 17.9075 -22.9426 main 678 678 P_____________ AL031923 17.9075 -22.9426 TS 45 0 10 320
1923250N12341 1923 58 NA NA NOT_NAMED 1923-09-09 06:00:00 TS 18.3000 -23.3000 45 hurdat_atl main 707 707 O_____________ hurdat_atl AL031923 18.3000 -23.3000 TS 45 0 10 319
1923250N12341 1923 58 NA NA NOT_NAMED 1923-09-09 09:00:00 TS 18.6724 -23.6501 main 729 725 P_____________ AL031923 18.6724 -23.6501 TS 42 0 10 317
1923250N12341 1923 58 NA NA NOT_NAMED 1923-09-09 12:00:00 TS 19.0000 -24.0000 40 hurdat_atl main 748 748 O_____________ hurdat_atl AL031923 19.0000 -24.0000 TS 40 0 9 312
1923250N12341 1923 58 NA NA NOT_NAMED 1923-09-09 15:00:00 TS 19.2649 -24.3502 main 780 780 P_____________ AL031923 19.2649 -24.3502 TS 40 0 8 307
1923250N12341 1923 58 NA NA NOT_NAMED 1923-09-09 18:00:00 TS 19.5000 -24.7000 40 hurdat_atl main 806 806 O_____________ hurdat_atl AL031923 19.5000 -24.7000 TS 40 0 8 307
1923250N12341 1923 58 NA NA NOT_NAMED 1923-09-09 21:00:00 TS 19.7499 -25.0426 main 833 833 P_____________ AL031923 19.7499 -25.0426 TS 37 0 8 307
1923250N12341 1923 58 NA NA NOT_NAMED 1923-09-10 00:00:00 TS 20.0000 -25.4000 35 hurdat_atl main 869 869 O_____________ hurdat_atl AL031923 20.0000 -25.4000 TS 35 0 9 305
1923250N12341 1923 58 NA NA NOT_NAMED 1923-09-10 03:00:00 TS 20.2500 -25.7926 main 908 907 P_____________ AL031923 20.2500 -25.7926 TS 35 0 9 304
1923250N12341 1923 58 NA NA NOT_NAMED 1923-09-10 06:00:00 TS 20.5000 -26.2000 35 hurdat_atl main 947 947 O_____________ hurdat_atl AL031923 20.5000 -26.2000 TS 35 0 9 303
1923250N12341 1923 58 NA NA NOT_NAMED 1923-09-10 09:00:00 TS 20.7499 -26.6001 main 987 987 P_____________ AL031923 20.7499 -26.6001 TS 35 0 9 304
1923250N12341 1923 58 NA NA NOT_NAMED 1923-09-10 12:00:00 TS 21.0000 -27.0000 35 hurdat_atl main 1028 1028 O_____________ hurdat_atl AL031923 21.0000 -27.0000 TS 35 0 9 304
1923250N12341 1923 58 NA NA NOT_NAMED 1923-09-10 15:00:00 TS 21.2499 -27.4001 main 1069 1069 P_____________ AL031923 21.2499 -27.4001 TS 32 -1 9 304
1923250N12341 1923 58 NA NA NOT_NAMED 1923-09-10 18:00:00 TS 21.5000 -27.8000 30 hurdat_atl main 1111 1111 O_____________ hurdat_atl AL031923 21.5000 -27.8000 TD 30 -1 9 304
1923250N12341 1923 58 NA NA NOT_NAMED 1923-09-10 21:00:00 TS 21.7502 -28.1997 main 1154 1154 P_____________ AL031923 21.7502 -28.1997 TD 30 -1 9 304
1923250N12341 1923 58 NA NA NOT_NAMED 1923-09-11 00:00:00 TS 22.0000 -28.6000 30 hurdat_atl main 1196 O_____________ hurdat_atl AL031923 22.0000 -28.6000 TD 30 -1 9 304

IBTrACS Databaseについて

本データベースは、米国NOAAが公開する1842年以降の世界の熱帯低気圧のベストトラックデータアーカイブInternational Best Track Archive for Climate Stewardship (IBTrACS)を、ウェブで閲覧しやすい形式に変換したものです。

最終更新日:2021-11-26